Edinburgh Airport, United Kingdom

3:03 AM GMT on February 08, 2016 (GMT +0000)
Edinburgh Airport | | Change Station
CLOSE
Current Station
Airport
Location: Edinburgh Airport,
Elevation: 135 ft
Nearby Weather Stations

Elev 135 ft 55.95 °N, 3.35 °W | Updated 13 minutes ago

Scattered Clouds
Scattered Clouds
41 °F
Feels Like 33 °F
N
15
Wind Variable Wind from SW

Today
High -- | Low -- °F
--% Chance of Precip.
Yesterday
High -- | Low -- °F
Precip. -- in
Pressure 28.53 in
Visibility 6.2 miles
Clouds Scattered Clouds 2400 ft
Windchill 33 °F
Dew Point 36 °F
Humidity 81%
Rainfall 0.00 in
Snow Depth Not available.
7:55 AM 5:00 PM
Waning Crescent, 0% visible
METAR EGPH 080250Z AUTO 22013KT 9999 SCT024 05/02 Q0966
Pressure 28.53 in
Visibility 6.2 miles
Clouds Scattered Clouds 2400 ft
Windchill 33 °F
Dew Point 36 °F
Humidity 81%
Rainfall 0.00 in
Snow Depth Not available.
7:55 AM 5:00 PM
Waning Crescent, 0% visible
METAR EGPH 080250Z AUTO 22013KT 9999 SCT024 05/02 Q0966

10-Day Weather Forecast

Almanac

Astronomy

Feb. 08, 2016 Rise Set
Actual Time
Civil Twilight
Nautical Twilight
Astronomical Twilight
Moon
Length of Visible Light
Length of Day
Tomorrow will be .
, % of the Moon is Illuminated

Today's Extremes

Country Highs Country Lows

Community

WunderPhotos

Upload Photos

1,891,373 photos uploaded!

WunderBlog® & News

Nearby

Air Quality

  Air Quality AQ Index Pollutant
Not available.

Snow Depth

Station Depth Elevation

Earthquake Activity

City Distance Mag. Time & Date
Minimum magnitude displayed is 2.5.

Coastal Water Temperatures

Place Temperature

Stations

Nearby Weather Stations

Station Location Temp. Windchill Dew Point Humidity Wind Precip. Elev Updated Type